sensor_id;sensor_type;location;lat;lon;timestamp;P1;durP1;ratioP1;P2;durP2;ratioP2
22314;SDS011;11325;55.686;37.566;2023-08-17T00:00:24;16.30;;;7.20;;
22314;SDS011;11325;55.686;37.566;2023-08-17T00:02:52;20.97;;;7.05;;
22314;SDS011;11325;55.686;37.566;2023-08-17T00:05:20;15.18;;;6.70;;
22314;SDS011;11325;55.686;37.566;2023-08-17T00:07:48;22.93;;;7.40;;
22314;SDS011;11325;55.686;37.566;2023-08-17T00:10:16;15.72;;;6.87;;
22314;SDS011;11325;55.686;37.566;2023-08-17T00:12:44;17.07;;;7.08;;
22314;SDS011;11325;55.686;37.566;2023-08-17T00:15:12;19.35;;;6.50;;
22314;SDS011;11325;55.686;37.566;2023-08-17T00:17:40;18.92;;;6.90;;
22314;SDS011;11325;55.686;37.566;2023-08-17T00:20:09;17.85;;;6.90;;
22314;SDS011;11325;55.686;37.566;2023-08-17T00:22:37;15.88;;;7.37;;
22314;SDS011;11325;55.686;37.566;2023-08-17T00:25:05;21.62;;;7.37;;
22314;SDS011;11325;55.686;37.566;2023-08-17T00:27:33;18.85;;;6.97;;
22314;SDS011;11325;55.686;37.566;2023-08-17T00:30:02;22.70;;;7.58;;
22314;SDS011;11325;55.686;37.566;2023-08-17T00:32:31;16.37;;;6.75;;
22314;SDS011;11325;55.686;37.566;2023-08-17T00:34:59;16.15;;;6.72;;
22314;SDS011;11325;55.686;37.566;2023-08-17T00:37:29;14.63;;;6.37;;
22314;SDS011;11325;55.686;37.566;2023-08-17T00:39:57;11.38;;;6.72;;
22314;SDS011;11325;55.686;37.566;2023-08-17T00:42:26;12.37;;;6.28;;
22314;SDS011;11325;55.686;37.566;2023-08-17T00:44:54;17.48;;;7.22;;
22314;SDS011;11325;55.686;37.566;2023-08-17T00:47:22;14.63;;;6.85;;
22314;SDS011;11325;55.686;37.566;2023-08-17T00:49:50;21.48;;;7.20;;
22314;SDS011;11325;55.686;37.566;2023-08-17T00:52:18;16.82;;;6.72;;
22314;SDS011;11325;55.686;37.566;2023-08-17T00:54:46;15.38;;;6.97;;
22314;SDS011;11325;55.686;37.566;2023-08-17T00:57:14;14.60;;;6.55;;
22314;SDS011;11325;55.686;37.566;2023-08-17T00:59:42;13.22;;;6.92;;
22314;SDS011;11325;55.686;37.566;2023-08-17T01:02:11;19.98;;;7.33;;
22314;SDS011;11325;55.686;37.566;2023-08-17T01:04:39;25.45;;;8.18;;
22314;SDS011;11325;55.686;37.566;2023-08-17T01:07:07;28.85;;;7.62;;
22314;SDS011;11325;55.686;37.566;2023-08-17T01:09:35;22.02;;;7.85;;
22314;SDS011;11325;55.686;37.566;2023-08-17T01:14:42;17.52;;;6.67;;
22314;SDS011;11325;55.686;37.566;2023-08-17T01:17:17;19.95;;;7.17;;
22314;SDS011;11325;55.686;37.566;2023-08-17T01:19:41;12.40;;;7.25;;
22314;SDS011;11325;55.686;37.566;2023-08-17T01:22:11;14.40;;;6.97;;
22314;SDS011;11325;55.686;37.566;2023-08-17T01:24:40;18.07;;;7.67;;
22314;SDS011;11325;55.686;37.566;2023-08-17T01:27:08;23.10;;;6.95;;
22314;SDS011;11325;55.686;37.566;2023-08-17T01:29:36;18.80;;;7.05;;
22314;SDS011;11325;55.686;37.566;2023-08-17T01:32:12;13.90;;;7.42;;
22314;SDS011;11325;55.686;37.566;2023-08-17T01:34:40;22.30;;;7.53;;
22314;SDS011;11325;55.686;37.566;2023-08-17T01:37:09;14.85;;;6.47;;
22314;SDS011;11325;55.686;37.566;2023-08-17T01:39:39;13.75;;;7.75;;
22314;SDS011;11325;55.686;37.566;2023-08-17T01:42:08;16.23;;;6.78;;
22314;SDS011;11325;55.686;37.566;2023-08-17T01:44:38;10.75;;;6.42;;
22314;SDS011;11325;55.686;37.566;2023-08-17T01:47:06;18.00;;;7.00;;
22314;SDS011;11325;55.686;37.566;2023-08-17T01:49:34;18.30;;;7.78;;
22314;SDS011;11325;55.686;37.566;2023-08-17T01:52:02;14.30;;;6.92;;
22314;SDS011;11325;55.686;37.566;2023-08-17T01:54:30;16.80;;;7.60;;
22314;SDS011;11325;55.686;37.566;2023-08-17T01:56:59;14.28;;;7.60;;
22314;SDS011;11325;55.686;37.566;2023-08-17T01:59:27;17.73;;;7.58;;
22314;SDS011;11325;55.686;37.566;2023-08-17T02:01:55;16.57;;;7.28;;
22314;SDS011;11325;55.686;37.566;2023-08-17T02:04:23;20.00;;;7.87;;
22314;SDS011;11325;55.686;37.566;2023-08-17T02:06:51;12.30;;;6.67;;
22314;SDS011;11325;55.686;37.566;2023-08-17T02:09:19;13.62;;;7.90;;
22314;SDS011;11325;55.686;37.566;2023-08-17T02:11:47;27.60;;;7.95;;
22314;SDS011;11325;55.686;37.566;2023-08-17T02:14:15;14.58;;;8.15;;
22314;SDS011;11325;55.686;37.566;2023-08-17T02:16:43;20.65;;;7.70;;
22314;SDS011;11325;55.686;37.566;2023-08-17T02:19:12;19.07;;;7.80;;
22314;SDS011;11325;55.686;37.566;2023-08-17T02:21:40;19.67;;;7.75;;
22314;SDS011;11325;55.686;37.566;2023-08-17T02:24:08;14.38;;;7.65;;
22314;SDS011;11325;55.686;37.566;2023-08-17T02:26:36;19.98;;;8.35;;
22314;SDS011;11325;55.686;37.566;2023-08-17T02:29:05;20.60;;;8.58;;
22314;SDS011;11325;55.686;37.566;2023-08-17T02:31:33;21.07;;;7.75;;
22314;SDS011;11325;55.686;37.566;2023-08-17T02:34:01;16.17;;;7.47;;
22314;SDS011;11325;55.686;37.566;2023-08-17T02:36:31;26.62;;;7.33;;
22314;SDS011;11325;55.686;37.566;2023-08-17T02:38:59;23.35;;;8.65;;
22314;SDS011;11325;55.686;37.566;2023-08-17T02:41:27;19.40;;;8.33;;
22314;SDS011;11325;55.686;37.566;2023-08-17T02:43:57;18.55;;;8.70;;
22314;SDS011;11325;55.686;37.566;2023-08-17T02:46:25;24.70;;;9.10;;
22314;SDS011;11325;55.686;37.566;2023-08-17T02:48:53;21.95;;;8.43;;
22314;SDS011;11325;55.686;37.566;2023-08-17T02:51:21;19.02;;;8.20;;
22314;SDS011;11325;55.686;37.566;2023-08-17T02:53:50;27.45;;;8.70;;
22314;SDS011;11325;55.686;37.566;2023-08-17T02:56:18;21.00;;;8.48;;
22314;SDS011;11325;55.686;37.566;2023-08-17T02:58:46;17.90;;;7.80;;
22314;SDS011;11325;55.686;37.566;2023-08-17T03:01:14;23.05;;;8.30;;
22314;SDS011;11325;55.686;37.566;2023-08-17T03:03:42;21.17;;;8.90;;
22314;SDS011;11325;55.686;37.566;2023-08-17T03:06:10;23.00;;;8.30;;
22314;SDS011;11325;55.686;37.566;2023-08-17T03:08:38;20.02;;;8.25;;
22314;SDS011;11325;55.686;37.566;2023-08-17T03:11:06;19.40;;;8.35;;
22314;SDS011;11325;55.686;37.566;2023-08-17T03:13:36;15.35;;;8.33;;
22314;SDS011;11325;55.686;37.566;2023-08-17T03:16:04;18.60;;;9.38;;
22314;SDS011;11325;55.686;37.566;2023-08-17T03:18:32;19.77;;;8.13;;
22314;SDS011;11325;55.686;37.566;2023-08-17T03:21:00;20.77;;;8.95;;
22314;SDS011;11325;55.686;37.566;2023-08-17T03:23:28;21.57;;;8.63;;
22314;SDS011;11325;55.686;37.566;2023-08-17T03:25:56;20.55;;;9.08;;
22314;SDS011;11325;55.686;37.566;2023-08-17T03:28:24;18.87;;;8.25;;
22314;SDS011;11325;55.686;37.566;2023-08-17T03:30:56;20.50;;;8.58;;
22314;SDS011;11325;55.686;37.566;2023-08-17T03:33:24;23.35;;;9.35;;
22314;SDS011;11325;55.686;37.566;2023-08-17T03:35:52;20.80;;;8.75;;
22314;SDS011;11325;55.686;37.566;2023-08-17T03:38:20;21.12;;;8.78;;
22314;SDS011;11325;55.686;37.566;2023-08-17T03:40:48;20.40;;;9.03;;
22314;SDS011;11325;55.686;37.566;2023-08-17T03:43:16;25.77;;;9.58;;
22314;SDS011;11325;55.686;37.566;2023-08-17T03:45:44;22.02;;;8.45;;
22314;SDS011;11325;55.686;37.566;2023-08-17T03:48:12;20.80;;;8.20;;
22314;SDS011;11325;55.686;37.566;2023-08-17T03:50:40;19.12;;;8.03;;
22314;SDS011;11325;55.686;37.566;2023-08-17T03:53:08;18.60;;;9.13;;
22314;SDS011;11325;55.686;37.566;2023-08-17T03:55:36;19.90;;;9.83;;
22314;SDS011;11325;55.686;37.566;2023-08-17T03:58:04;15.13;;;8.08;;
22314;SDS011;11325;55.686;37.566;2023-08-17T04:00:32;14.83;;;8.25;;
22314;SDS011;11325;55.686;37.566;2023-08-17T04:03:00;14.70;;;8.28;;
22314;SDS011;11325;55.686;37.566;2023-08-17T04:05:29;17.02;;;8.03;;
22314;SDS011;11325;55.686;37.566;2023-08-17T04:07:57;22.67;;;8.58;;
22314;SDS011;11325;55.686;37.566;2023-08-17T04:10:26;20.52;;;8.63;;
22314;SDS011;11325;55.686;37.566;2023-08-17T04:12:55;14.23;;;8.18;;
22314;SDS011;11325;55.686;37.566;2023-08-17T04:15:23;16.95;;;8.73;;
22314;SDS011;11325;55.686;37.566;2023-08-17T04:17:51;17.17;;;7.90;;
22314;SDS011;11325;55.686;37.566;2023-08-17T04:20:19;21.42;;;8.58;;
22314;SDS011;11325;55.686;37.566;2023-08-17T04:22:48;20.45;;;8.35;;
22314;SDS011;11325;55.686;37.566;2023-08-17T04:25:16;16.20;;;7.67;;
22314;SDS011;11325;55.686;37.566;2023-08-17T04:27:45;18.02;;;8.18;;
22314;SDS011;11325;55.686;37.566;2023-08-17T04:30:13;22.17;;;8.00;;
22314;SDS011;11325;55.686;37.566;2023-08-17T04:32:41;23.98;;;8.38;;
22314;SDS011;11325;55.686;37.566;2023-08-17T04:35:09;23.05;;;8.68;;
22314;SDS011;11325;55.686;37.566;2023-08-17T04:37:37;23.00;;;9.05;;
22314;SDS011;11325;55.686;37.566;2023-08-17T04:40:06;14.58;;;7.72;;
22314;SDS011;11325;55.686;37.566;2023-08-17T04:42:34;21.45;;;7.90;;
22314;SDS011;11325;55.686;37.566;2023-08-17T04:45:02;15.38;;;7.90;;
22314;SDS011;11325;55.686;37.566;2023-08-17T04:47:31;14.03;;;7.65;;
22314;SDS011;11325;55.686;37.566;2023-08-17T04:49:59;16.00;;;7.70;;
22314;SDS011;11325;55.686;37.566;2023-08-17T04:52:27;21.30;;;7.62;;
22314;SDS011;11325;55.686;37.566;2023-08-17T04:54:55;23.22;;;7.80;;
22314;SDS011;11325;55.686;37.566;2023-08-17T04:57:23;22.95;;;7.67;;
22314;SDS011;11325;55.686;37.566;2023-08-17T04:59:51;21.12;;;8.33;;
22314;SDS011;11325;55.686;37.566;2023-08-17T05:02:19;21.10;;;7.83;;
22314;SDS011;11325;55.686;37.566;2023-08-17T05:04:47;16.07;;;7.08;;
22314;SDS011;11325;55.686;37.566;2023-08-17T05:07:15;15.13;;;7.10;;
22314;SDS011;11325;55.686;37.566;2023-08-17T05:09:43;22.98;;;8.25;;
22314;SDS011;11325;55.686;37.566;2023-08-17T05:12:11;11.73;;;7.60;;
22314;SDS011;11325;55.686;37.566;2023-08-17T05:14:40;16.60;;;6.90;;
22314;SDS011;11325;55.686;37.566;2023-08-17T05:17:08;23.27;;;8.63;;
22314;SDS011;11325;55.686;37.566;2023-08-17T05:19:36;22.52;;;7.92;;
22314;SDS011;11325;55.686;37.566;2023-08-17T05:22:10;25.20;;;7.62;;
22314;SDS011;11325;55.686;37.566;2023-08-17T05:24:36;17.02;;;8.95;;
22314;SDS011;11325;55.686;37.566;2023-08-17T05:27:04;35.85;;;9.85;;
22314;SDS011;11325;55.686;37.566;2023-08-17T05:29:32;17.85;;;8.10;;
22314;SDS011;11325;55.686;37.566;2023-08-17T05:32:00;29.37;;;8.30;;
22314;SDS011;11325;55.686;37.566;2023-08-17T05:34:28;11.93;;;7.70;;
22314;SDS011;11325;55.686;37.566;2023-08-17T05:36:56;14.93;;;7.25;;
22314;SDS011;11325;55.686;37.566;2023-08-17T05:39:24;16.07;;;8.35;;
22314;SDS011;11325;55.686;37.566;2023-08-17T05:41:52;22.17;;;7.42;;
22314;SDS011;11325;55.686;37.566;2023-08-17T05:44:20;29.70;;;7.97;;
22314;SDS011;11325;55.686;37.566;2023-08-17T05:46:48;14.68;;;7.37;;
22314;SDS011;11325;55.686;37.566;2023-08-17T05:49:16;18.67;;;7.28;;
22314;SDS011;11325;55.686;37.566;2023-08-17T05:51:44;13.80;;;7.30;;
22314;SDS011;11325;55.686;37.566;2023-08-17T05:54:13;17.80;;;7.25;;
22314;SDS011;11325;55.686;37.566;2023-08-17T05:56:41;12.18;;;6.50;;
22314;SDS011;11325;55.686;37.566;2023-08-17T05:59:11;16.93;;;6.58;;
22314;SDS011;11325;55.686;37.566;2023-08-17T06:01:39;11.18;;;6.78;;
22314;SDS011;11325;55.686;37.566;2023-08-17T06:04:07;11.57;;;6.00;;
22314;SDS011;11325;55.686;37.566;2023-08-17T06:06:35;17.50;;;6.58;;
22314;SDS011;11325;55.686;37.566;2023-08-17T06:09:03;11.95;;;6.47;;
22314;SDS011;11325;55.686;37.566;2023-08-17T06:11:32;17.90;;;6.60;;
22314;SDS011;11325;55.686;37.566;2023-08-17T06:14:00;11.22;;;5.90;;
22314;SDS011;11325;55.686;37.566;2023-08-17T06:16:28;13.48;;;6.40;;
22314;SDS011;11325;55.686;37.566;2023-08-17T06:18:56;15.70;;;6.30;;
22314;SDS011;11325;55.686;37.566;2023-08-17T06:21:24;11.63;;;6.55;;
22314;SDS011;11325;55.686;37.566;2023-08-17T06:23:52;10.50;;;6.03;;
22314;SDS011;11325;55.686;37.566;2023-08-17T06:26:20;13.50;;;6.25;;
22314;SDS011;11325;55.686;37.566;2023-08-17T06:28:48;12.60;;;6.12;;
22314;SDS011;11325;55.686;37.566;2023-08-17T06:31:16;8.90;;;5.42;;
22314;SDS011;11325;55.686;37.566;2023-08-17T06:33:44;18.25;;;5.03;;
22314;SDS011;11325;55.686;37.566;2023-08-17T06:36:13;8.70;;;5.15;;
22314;SDS011;11325;55.686;37.566;2023-08-17T06:38:42;12.50;;;5.28;;
22314;SDS011;11325;55.686;37.566;2023-08-17T06:41:10;12.78;;;5.55;;
22314;SDS011;11325;55.686;37.566;2023-08-17T06:43:38;11.33;;;4.62;;
22314;SDS011;11325;55.686;37.566;2023-08-17T06:46:06;12.13;;;5.83;;
22314;SDS011;11325;55.686;37.566;2023-08-17T06:48:34;11.50;;;4.95;;
22314;SDS011;11325;55.686;37.566;2023-08-17T06:51:02;13.22;;;5.40;;
22314;SDS011;11325;55.686;37.566;2023-08-17T06:53:31;8.50;;;5.17;;
22314;SDS011;11325;55.686;37.566;2023-08-17T06:55:59;8.98;;;4.42;;
22314;SDS011;11325;55.686;37.566;2023-08-17T06:58:27;9.00;;;3.65;;
22314;SDS011;11325;55.686;37.566;2023-08-17T07:00:56;8.13;;;3.65;;
22314;SDS011;11325;55.686;37.566;2023-08-17T07:03:24;7.25;;;3.60;;
22314;SDS011;11325;55.686;37.566;2023-08-17T07:05:52;7.17;;;3.40;;
22314;SDS011;11325;55.686;37.566;2023-08-17T07:08:20;8.20;;;3.15;;
22314;SDS011;11325;55.686;37.566;2023-08-17T07:10:48;6.90;;;3.10;;
22314;SDS011;11325;55.686;37.566;2023-08-17T07:13:16;7.37;;;2.95;;
22314;SDS011;11325;55.686;37.566;2023-08-17T07:15:44;12.13;;;3.20;;
22314;SDS011;11325;55.686;37.566;2023-08-17T07:18:12;3.98;;;3.15;;
22314;SDS011;11325;55.686;37.566;2023-08-17T07:20:40;6.83;;;3.37;;
22314;SDS011;11325;55.686;37.566;2023-08-17T07:23:08;4.60;;;2.92;;
22314;SDS011;11325;55.686;37.566;2023-08-17T07:25:36;8.18;;;2.77;;
22314;SDS011;11325;55.686;37.566;2023-08-17T07:28:04;6.35;;;2.83;;
22314;SDS011;11325;55.686;37.566;2023-08-17T07:30:33;9.53;;;2.58;;
22314;SDS011;11325;55.686;37.566;2023-08-17T07:33:01;5.67;;;2.85;;
22314;SDS011;11325;55.686;37.566;2023-08-17T07:35:29;10.05;;;3.60;;
22314;SDS011;11325;55.686;37.566;2023-08-17T07:37:57;8.10;;;2.80;;
22314;SDS011;11325;55.686;37.566;2023-08-17T07:40:25;4.90;;;2.80;;
22314;SDS011;11325;55.686;37.566;2023-08-17T07:42:53;8.95;;;3.55;;
22314;SDS011;11325;55.686;37.566;2023-08-17T07:45:21;6.70;;;2.95;;
22314;SDS011;11325;55.686;37.566;2023-08-17T07:47:49;7.60;;;3.70;;
22314;SDS011;11325;55.686;37.566;2023-08-17T07:50:17;8.40;;;3.08;;
22314;SDS011;11325;55.686;37.566;2023-08-17T07:52:45;6.70;;;2.98;;
22314;SDS011;11325;55.686;37.566;2023-08-17T07:55:13;5.80;;;2.60;;
22314;SDS011;11325;55.686;37.566;2023-08-17T07:57:41;6.85;;;3.00;;
22314;SDS011;11325;55.686;37.566;2023-08-17T08:00:10;3.72;;;2.52;;
22314;SDS011;11325;55.686;37.566;2023-08-17T08:02:38;10.70;;;3.17;;
22314;SDS011;11325;55.686;37.566;2023-08-17T08:05:07;6.72;;;3.15;;
22314;SDS011;11325;55.686;37.566;2023-08-17T08:07:35;5.22;;;2.83;;
22314;SDS011;11325;55.686;37.566;2023-08-17T08:10:03;9.15;;;2.83;;
22314;SDS011;11325;55.686;37.566;2023-08-17T08:12:31;5.75;;;2.80;;
22314;SDS011;11325;55.686;37.566;2023-08-17T08:14:59;7.62;;;3.45;;
22314;SDS011;11325;55.686;37.566;2023-08-17T08:17:30;9.63;;;2.70;;
22314;SDS011;11325;55.686;37.566;2023-08-17T08:19:58;9.58;;;3.20;;
22314;SDS011;11325;55.686;37.566;2023-08-17T08:22:26;7.10;;;3.20;;
22314;SDS011;11325;55.686;37.566;2023-08-17T08:24:54;8.35;;;2.87;;
22314;SDS011;11325;55.686;37.566;2023-08-17T08:27:22;5.62;;;2.95;;
22314;SDS011;11325;55.686;37.566;2023-08-17T08:29:51;7.35;;;2.90;;
22314;SDS011;11325;55.686;37.566;2023-08-17T08:34:58;8.00;;;3.05;;
22314;SDS011;11325;55.686;37.566;2023-08-17T08:37:26;8.78;;;3.30;;
22314;SDS011;11325;55.686;37.566;2023-08-17T08:39:54;4.70;;;2.95;;
22314;SDS011;11325;55.686;37.566;2023-08-17T08:42:23;6.33;;;3.10;;
22314;SDS011;11325;55.686;37.566;2023-08-17T08:44:52;6.72;;;3.20;;
22314;SDS011;11325;55.686;37.566;2023-08-17T08:47:20;5.03;;;3.12;;
22314;SDS011;11325;55.686;37.566;2023-08-17T08:50:00;5.55;;;2.85;;
22314;SDS011;11325;55.686;37.566;2023-08-17T08:52:34;6.65;;;2.98;;
22314;SDS011;11325;55.686;37.566;2023-08-17T08:55:14;5.75;;;3.02;;
22314;SDS011;11325;55.686;37.566;2023-08-17T08:57:41;4.58;;;3.37;;
22314;SDS011;11325;55.686;37.566;2023-08-17T09:00:11;3.45;;;3.15;;
22314;SDS011;11325;55.686;37.566;2023-08-17T09:02:39;6.10;;;3.45;;
22314;SDS011;11325;55.686;37.566;2023-08-17T09:05:09;5.97;;;3.22;;
22314;SDS011;11325;55.686;37.566;2023-08-17T09:07:37;9.73;;;3.62;;
22314;SDS011;11325;55.686;37.566;2023-08-17T09:10:06;4.50;;;3.12;;
22314;SDS011;11325;55.686;37.566;2023-08-17T09:12:36;9.93;;;3.20;;
22314;SDS011;11325;55.686;37.566;2023-08-17T09:15:05;10.90;;;2.80;;
22314;SDS011;11325;55.686;37.566;2023-08-17T09:17:33;4.22;;;3.60;;
22314;SDS011;11325;55.686;37.566;2023-08-17T09:20:01;4.40;;;3.75;;
22314;SDS011;11325;55.686;37.566;2023-08-17T09:22:38;23.52;;;4.22;;
22314;SDS011;11325;55.686;37.566;2023-08-17T09:25:07;6.50;;;3.17;;
22314;SDS011;11325;55.686;37.566;2023-08-17T09:27:38;5.65;;;3.20;;
22314;SDS011;11325;55.686;37.566;2023-08-17T09:30:09;8.68;;;3.65;;
22314;SDS011;11325;55.686;37.566;2023-08-17T09:32:37;15.05;;;3.45;;
22314;SDS011;11325;55.686;37.566;2023-08-17T09:35:06;9.95;;;3.52;;
22314;SDS011;11325;55.686;37.566;2023-08-17T09:37:34;6.53;;;3.08;;
22314;SDS011;11325;55.686;37.566;2023-08-17T09:40:02;6.12;;;3.40;;
22314;SDS011;11325;55.686;37.566;2023-08-17T09:42:35;7.95;;;3.25;;
22314;SDS011;11325;55.686;37.566;2023-08-17T09:45:03;7.33;;;3.35;;
22314;SDS011;11325;55.686;37.566;2023-08-17T09:47:32;6.15;;;2.92;;
22314;SDS011;11325;55.686;37.566;2023-08-17T09:50:01;7.65;;;3.55;;
22314;SDS011;11325;55.686;37.566;2023-08-17T09:52:30;7.80;;;3.55;;
22314;SDS011;11325;55.686;37.566;2023-08-17T09:54:58;8.53;;;3.25;;
22314;SDS011;11325;55.686;37.566;2023-08-17T09:57:29;7.47;;;3.65;;
22314;SDS011;11325;55.686;37.566;2023-08-17T09:59:57;5.03;;;3.42;;
22314;SDS011;11325;55.686;37.566;2023-08-17T10:02:25;12.20;;;3.40;;
22314;SDS011;11325;55.686;37.566;2023-08-17T10:04:54;8.88;;;3.25;;
22314;SDS011;11325;55.686;37.566;2023-08-17T10:07:27;4.40;;;2.80;;
22314;SDS011;11325;55.686;37.566;2023-08-17T10:09:56;11.75;;;3.70;;
22314;SDS011;11325;55.686;37.566;2023-08-17T10:12:23;8.38;;;3.50;;
22314;SDS011;11325;55.686;37.566;2023-08-17T10:14:57;10.38;;;3.50;;
22314;SDS011;11325;55.686;37.566;2023-08-17T10:17:30;12.23;;;5.83;;
22314;SDS011;11325;55.686;37.566;2023-08-17T10:19:58;14.55;;;5.15;;
22314;SDS011;11325;55.686;37.566;2023-08-17T10:24:57;5.90;;;3.52;;
22314;SDS011;11325;55.686;37.566;2023-08-17T10:27:26;6.75;;;3.33;;
22314;SDS011;11325;55.686;37.566;2023-08-17T10:29:54;8.48;;;3.30;;
22314;SDS011;11325;55.686;37.566;2023-08-17T10:32:23;3.98;;;2.27;;
22314;SDS011;11325;55.686;37.566;2023-08-17T10:34:51;7.62;;;2.87;;
22314;SDS011;11325;55.686;37.566;2023-08-17T10:37:20;12.98;;;3.00;;
22314;SDS011;11325;55.686;37.566;2023-08-17T10:39:48;8.93;;;3.08;;
22314;SDS011;11325;55.686;37.566;2023-08-17T10:42:29;8.93;;;3.60;;
22314;SDS011;11325;55.686;37.566;2023-08-17T10:44:47;9.20;;;3.90;;
22314;SDS011;11325;55.686;37.566;2023-08-17T10:47:25;5.70;;;3.12;;
22314;SDS011;11325;55.686;37.566;2023-08-17T10:49:57;6.05;;;3.40;;
22314;SDS011;11325;55.686;37.566;2023-08-17T10:52:36;6.78;;;3.95;;
22314;SDS011;11325;55.686;37.566;2023-08-17T10:54:55;9.75;;;3.75;;
22314;SDS011;11325;55.686;37.566;2023-08-17T10:57:36;5.12;;;3.33;;
22314;SDS011;11325;55.686;37.566;2023-08-17T11:00:14;5.55;;;3.52;;
22314;SDS011;11325;55.686;37.566;2023-08-17T11:02:43;8.43;;;3.30;;
22314;SDS011;11325;55.686;37.566;2023-08-17T11:05:11;6.55;;;3.55;;
22314;SDS011;11325;55.686;37.566;2023-08-17T11:07:41;9.35;;;4.08;;
22314;SDS011;11325;55.686;37.566;2023-08-17T11:10:26;8.70;;;3.60;;
22314;SDS011;11325;55.686;37.566;2023-08-17T11:12:42;5.17;;;3.40;;
22314;SDS011;11325;55.686;37.566;2023-08-17T11:15:10;11.93;;;3.72;;
22314;SDS011;11325;55.686;37.566;2023-08-17T11:17:38;7.92;;;3.62;;
22314;SDS011;11325;55.686;37.566;2023-08-17T11:20:06;8.78;;;3.50;;
22314;SDS011;11325;55.686;37.566;2023-08-17T11:22:36;5.75;;;3.37;;
22314;SDS011;11325;55.686;37.566;2023-08-17T11:25:05;7.50;;;3.47;;
22314;SDS011;11325;55.686;37.566;2023-08-17T11:27:33;4.55;;;3.30;;
22314;SDS011;11325;55.686;37.566;2023-08-17T11:30:01;8.45;;;3.55;;
22314;SDS011;11325;55.686;37.566;2023-08-17T11:32:31;4.58;;;3.37;;
22314;SDS011;11325;55.686;37.566;2023-08-17T11:34:59;3.60;;;2.98;;
22314;SDS011;11325;55.686;37.566;2023-08-17T11:37:27;5.50;;;3.12;;
22314;SDS011;11325;55.686;37.566;2023-08-17T11:39:56;7.65;;;3.65;;
22314;SDS011;11325;55.686;37.566;2023-08-17T11:42:24;4.47;;;3.37;;
22314;SDS011;11325;55.686;37.566;2023-08-17T11:44:52;8.93;;;3.80;;
22314;SDS011;11325;55.686;37.566;2023-08-17T11:47:21;6.83;;;3.45;;
22314;SDS011;11325;55.686;37.566;2023-08-17T11:49:49;4.83;;;3.37;;
22314;SDS011;11325;55.686;37.566;2023-08-17T11:52:20;6.25;;;3.98;;
22314;SDS011;11325;55.686;37.566;2023-08-17T11:54:48;4.45;;;3.45;;
22314;SDS011;11325;55.686;37.566;2023-08-17T11:57:16;9.20;;;3.95;;
22314;SDS011;11325;55.686;37.566;2023-08-17T11:59:44;13.70;;;3.77;;
22314;SDS011;11325;55.686;37.566;2023-08-17T12:02:12;14.98;;;5.22;;
22314;SDS011;11325;55.686;37.566;2023-08-17T12:04:41;8.20;;;3.95;;
22314;SDS011;11325;55.686;37.566;2023-08-17T12:07:11;6.22;;;4.08;;
22314;SDS011;11325;55.686;37.566;2023-08-17T12:09:39;6.47;;;4.30;;
22314;SDS011;11325;55.686;37.566;2023-08-17T12:12:08;8.85;;;5.03;;
22314;SDS011;11325;55.686;37.566;2023-08-17T12:14:42;11.40;;;5.03;;
22314;SDS011;11325;55.686;37.566;2023-08-17T12:17:07;8.63;;;3.87;;
22314;SDS011;11325;55.686;37.566;2023-08-17T12:19:35;7.30;;;4.35;;
22314;SDS011;11325;55.686;37.566;2023-08-17T12:22:03;6.35;;;3.60;;
22314;SDS011;11325;55.686;37.566;2023-08-17T12:24:31;8.68;;;4.30;;
22314;SDS011;11325;55.686;37.566;2023-08-17T12:27:02;6.83;;;4.00;;
22314;SDS011;11325;55.686;37.566;2023-08-17T12:29:30;14.47;;;3.95;;
22314;SDS011;11325;55.686;37.566;2023-08-17T12:31:58;7.90;;;3.60;;
22314;SDS011;11325;55.686;37.566;2023-08-17T12:34:27;12.68;;;4.05;;
22314;SDS011;11325;55.686;37.566;2023-08-17T12:36:55;7.95;;;4.35;;
22314;SDS011;11325;55.686;37.566;2023-08-17T12:39:23;5.10;;;3.50;;
22314;SDS011;11325;55.686;37.566;2023-08-17T12:41:51;7.17;;;3.70;;
22314;SDS011;11325;55.686;37.566;2023-08-17T12:44:19;9.75;;;3.95;;
22314;SDS011;11325;55.686;37.566;2023-08-17T12:46:47;8.60;;;4.03;;
22314;SDS011;11325;55.686;37.566;2023-08-17T12:49:15;5.03;;;3.87;;
22314;SDS011;11325;55.686;37.566;2023-08-17T12:51:43;7.97;;;3.87;;
22314;SDS011;11325;55.686;37.566;2023-08-17T12:54:11;17.05;;;5.15;;
22314;SDS011;11325;55.686;37.566;2023-08-17T12:56:39;12.37;;;4.53;;
22314;SDS011;11325;55.686;37.566;2023-08-17T12:59:07;11.43;;;4.97;;
22314;SDS011;11325;55.686;37.566;2023-08-17T13:01:35;20.70;;;6.65;;
22314;SDS011;11325;55.686;37.566;2023-08-17T13:04:03;9.10;;;4.33;;
22314;SDS011;11325;55.686;37.566;2023-08-17T13:06:32;6.60;;;4.10;;
22314;SDS011;11325;55.686;37.566;2023-08-17T13:09:00;6.10;;;3.67;;
22314;SDS011;11325;55.686;37.566;2023-08-17T13:11:29;7.50;;;3.92;;
22314;SDS011;11325;55.686;37.566;2023-08-17T13:13:57;7.10;;;3.55;;
22314;SDS011;11325;55.686;37.566;2023-08-17T13:16:25;5.92;;;3.70;;
22314;SDS011;11325;55.686;37.566;2023-08-17T13:18:53;6.72;;;3.90;;
22314;SDS011;11325;55.686;37.566;2023-08-17T13:21:21;9.78;;;4.15;;
22314;SDS011;11325;55.686;37.566;2023-08-17T13:23:51;7.80;;;4.62;;
22314;SDS011;11325;55.686;37.566;2023-08-17T13:26:18;8.18;;;3.87;;
22314;SDS011;11325;55.686;37.566;2023-08-17T13:28:46;6.53;;;3.77;;
22314;SDS011;11325;55.686;37.566;2023-08-17T13:31:14;12.20;;;6.60;;
22314;SDS011;11325;55.686;37.566;2023-08-17T13:33:42;6.28;;;4.17;;
22314;SDS011;11325;55.686;37.566;2023-08-17T13:36:11;6.65;;;3.95;;
22314;SDS011;11325;55.686;37.566;2023-08-17T13:38:39;8.28;;;4.00;;
22314;SDS011;11325;55.686;37.566;2023-08-17T13:41:07;7.10;;;3.75;;
22314;SDS011;11325;55.686;37.566;2023-08-17T13:43:35;6.45;;;4.30;;
22314;SDS011;11325;55.686;37.566;2023-08-17T13:46:03;8.18;;;4.75;;
22314;SDS011;11325;55.686;37.566;2023-08-17T13:48:31;10.23;;;4.25;;
22314;SDS011;11325;55.686;37.566;2023-08-17T13:50:59;7.80;;;4.62;;
22314;SDS011;11325;55.686;37.566;2023-08-17T13:53:28;8.08;;;4.85;;
22314;SDS011;11325;55.686;37.566;2023-08-17T13:55:56;11.80;;;4.67;;
22314;SDS011;11325;55.686;37.566;2023-08-17T13:58:24;4.83;;;3.70;;
22314;SDS011;11325;55.686;37.566;2023-08-17T14:00:52;13.45;;;4.78;;
22314;SDS011;11325;55.686;37.566;2023-08-17T14:03:26;5.65;;;3.92;;
22314;SDS011;11325;55.686;37.566;2023-08-17T14:05:50;8.75;;;4.47;;
22314;SDS011;11325;55.686;37.566;2023-08-17T14:08:18;6.53;;;4.72;;
22314;SDS011;11325;55.686;37.566;2023-08-17T14:10:46;8.65;;;4.22;;
22314;SDS011;11325;55.686;37.566;2023-08-17T14:13:14;10.60;;;5.15;;
22314;SDS011;11325;55.686;37.566;2023-08-17T14:15:43;7.65;;;3.90;;
22314;SDS011;11325;55.686;37.566;2023-08-17T14:18:11;28.05;;;5.00;;
22314;SDS011;11325;55.686;37.566;2023-08-17T14:20:39;10.28;;;4.05;;
22314;SDS011;11325;55.686;37.566;2023-08-17T14:23:07;7.50;;;3.75;;
22314;SDS011;11325;55.686;37.566;2023-08-17T14:25:35;7.97;;;3.75;;
22314;SDS011;11325;55.686;37.566;2023-08-17T14:28:04;7.67;;;4.25;;
22314;SDS011;11325;55.686;37.566;2023-08-17T14:30:34;16.07;;;4.75;;
22314;SDS011;11325;55.686;37.566;2023-08-17T14:33:02;8.10;;;3.80;;
22314;SDS011;11325;55.686;37.566;2023-08-17T14:35:30;7.45;;;4.58;;
22314;SDS011;11325;55.686;37.566;2023-08-17T14:37:58;9.33;;;3.92;;
22314;SDS011;11325;55.686;37.566;2023-08-17T14:40:28;7.75;;;4.10;;
22314;SDS011;11325;55.686;37.566;2023-08-17T14:42:56;19.85;;;6.28;;